sensor_id;sensor_type;location;lat;lon;timestamp;pressure;altitude;pressure_sealevel;temperature;humidity
46007;BME280;31738;50.188;8.524;2024-03-02T00:00:16;97632.09;;;7.06;83.76
46007;BME280;31738;50.188;8.524;2024-03-02T00:06:34;97617.25;;;6.95;83.50
46007;BME280;31738;50.188;8.524;2024-03-02T00:09:34;97619.66;;;6.91;83.76
46007;BME280;31738;50.188;8.524;2024-03-02T00:12:27;97614.06;;;6.93;84.06
46007;BME280;31738;50.188;8.524;2024-03-02T00:15:06;97607.44;;;6.90;83.86
46007;BME280;31738;50.188;8.524;2024-03-02T00:17:41;97616.22;;;6.91;83.71
46007;BME280;31738;50.188;8.524;2024-03-02T00:20:18;97603.94;;;6.90;84.29
46007;BME280;31738;50.188;8.524;2024-03-02T00:23:05;97609.84;;;6.87;83.92
46007;BME280;31738;50.188;8.524;2024-03-02T00:25:47;97607.97;;;6.87;83.99
46007;BME280;31738;50.188;8.524;2024-03-02T00:28:40;97606.69;;;6.85;83.79
46007;BME280;31738;50.188;8.524;2024-03-02T00:31:21;97608.28;;;6.81;84.07
46007;BME280;31738;50.188;8.524;2024-03-02T00:34:33;97606.16;;;6.78;84.22
46007;BME280;31738;50.188;8.524;2024-03-02T00:37:11;97604.88;;;6.75;83.83
46007;BME280;31738;50.188;8.524;2024-03-02T00:39:49;97602.75;;;6.72;84.05
46007;BME280;31738;50.188;8.524;2024-03-02T00:42:38;97614.75;;;6.70;84.22
46007;BME280;31738;50.188;8.524;2024-03-02T00:45:35;97608.63;;;6.69;84.13
46007;BME280;31738;50.188;8.524;2024-03-02T00:48:16;97616.09;;;6.67;84.31
46007;BME280;31738;50.188;8.524;2024-03-02T00:50:54;97621.69;;;6.66;84.20
46007;BME280;31738;50.188;8.524;2024-03-02T00:53:44;97613.47;;;6.62;84.26
46007;BME280;31738;50.188;8.524;2024-03-02T00:56:16;97611.06;;;6.61;84.47
46007;BME280;31738;50.188;8.524;2024-03-02T00:58:45;97604.16;;;6.60;84.37
46007;BME280;31738;50.188;8.524;2024-03-02T01:01:26;97617.75;;;6.58;84.14
46007;BME280;31738;50.188;8.524;2024-03-02T01:04:09;97616.94;;;6.58;84.55
46007;BME280;31738;50.188;8.524;2024-03-02T01:06:52;97614.06;;;6.54;84.64
46007;BME280;31738;50.188;8.524;2024-03-02T01:09:33;97624.19;;;6.52;84.61
46007;BME280;31738;50.188;8.524;2024-03-02T01:12:10;97618.03;;;6.52;84.23
46007;BME280;31738;50.188;8.524;2024-03-02T01:14:50;97625.28;;;6.46;84.33
46007;BME280;31738;50.188;8.524;2024-03-02T01:17:29;97613.81;;;6.46;84.53
46007;BME280;31738;50.188;8.524;2024-03-02T01:20:39;97612.50;;;6.43;84.76
46007;BME280;31738;50.188;8.524;2024-03-02T01:23:31;97611.16;;;6.41;84.92
46007;BME280;31738;50.188;8.524;2024-03-02T01:26:13;97610.13;;;6.42;84.42
46007;BME280;31738;50.188;8.524;2024-03-02T01:28:52;97605.06;;;6.40;84.63
46007;BME280;31738;50.188;8.524;2024-03-02T01:31:32;97602.63;;;6.44;84.55
46007;BME280;31738;50.188;8.524;2024-03-02T01:34:01;97604.75;;;6.47;84.80
46007;BME280;31738;50.188;8.524;2024-03-02T01:37:02;97595.72;;;6.48;84.55
46007;BME280;31738;50.188;8.524;2024-03-02T01:39:49;97601.03;;;6.48;84.67
46007;BME280;31738;50.188;8.524;2024-03-02T01:42:17;97597.81;;;6.51;84.97
46007;BME280;31738;50.188;8.524;2024-03-02T01:44:45;97594.59;;;6.54;84.84
46007;BME280;31738;50.188;8.524;2024-03-02T01:47:35;97593.56;;;6.50;84.99
46007;BME280;31738;50.188;8.524;2024-03-02T01:50:14;97596.47;;;6.53;85.09
46007;BME280;31738;50.188;8.524;2024-03-02T01:52:45;97588.75;;;6.52;85.19
46007;BME280;31738;50.188;8.524;2024-03-02T01:55:18;97575.44;;;6.52;84.81
46007;BME280;31738;50.188;8.524;2024-03-02T01:58:03;97580.50;;;6.48;85.04
46007;BME280;31738;50.188;8.524;2024-03-02T02:00:39;97569.06;;;6.48;85.25
46007;BME280;31738;50.188;8.524;2024-03-02T02:03:29;97566.44;;;6.43;85.63
46007;BME280;31738;50.188;8.524;2024-03-02T02:06:32;97562.28;;;6.27;85.17
46007;BME280;31738;50.188;8.524;2024-03-02T02:09:08;97560.19;;;6.14;85.26
46007;BME280;31738;50.188;8.524;2024-03-02T02:11:39;97565.53;;;6.09;85.41
46007;BME280;31738;50.188;8.524;2024-03-02T02:14:46;97558.88;;;6.11;85.02
46007;BME280;31738;50.188;8.524;2024-03-02T02:17:30;97555.94;;;6.13;85.01
46007;BME280;31738;50.188;8.524;2024-03-02T02:20:08;97547.16;;;6.12;85.29
46007;BME280;31738;50.188;8.524;2024-03-02T02:23:11;97550.63;;;6.13;85.26
46007;BME280;31738;50.188;8.524;2024-03-02T02:25:50;97558.34;;;6.09;85.44
46007;BME280;31738;50.188;8.524;2024-03-02T02:28:26;97551.19;;;6.10;85.22
46007;BME280;31738;50.188;8.524;2024-03-02T02:30:54;97552.75;;;6.11;85.18
46007;BME280;31738;50.188;8.524;2024-03-02T02:33:40;97556.50;;;6.10;85.73
46007;BME280;31738;50.188;8.524;2024-03-02T02:36:31;97549.56;;;6.09;85.49
46007;BME280;31738;50.188;8.524;2024-03-02T02:41:44;97541.63;;;6.04;85.41
46007;BME280;31738;50.188;8.524;2024-03-02T02:44:10;97552.00;;;6.05;85.74
46007;BME280;31738;50.188;8.524;2024-03-02T02:47:07;97549.06;;;6.02;85.80
46007;BME280;31738;50.188;8.524;2024-03-02T02:49:43;97537.94;;;5.95;85.89
46007;BME280;31738;50.188;8.524;2024-03-02T02:52:13;97538.72;;;5.95;85.82
46007;BME280;31738;50.188;8.524;2024-03-02T02:54:52;97537.94;;;5.95;85.90
46007;BME280;31738;50.188;8.524;2024-03-02T02:57:32;97538.47;;;5.92;85.70
46007;BME280;31738;50.188;8.524;2024-03-02T03:00:15;97526.22;;;5.91;85.78
46007;BME280;31738;50.188;8.524;2024-03-02T03:03:01;97520.91;;;5.91;85.99
46007;BME280;31738;50.188;8.524;2024-03-02T03:05:51;97530.53;;;5.87;86.32
46007;BME280;31738;50.188;8.524;2024-03-02T03:08:25;97528.38;;;5.89;85.65
46007;BME280;31738;50.188;8.524;2024-03-02T03:11:18;97519.88;;;5.87;85.75
46007;BME280;31738;50.188;8.524;2024-03-02T03:14:01;97517.22;;;5.87;85.48
46007;BME280;31738;50.188;8.524;2024-03-02T03:16:54;97527.31;;;5.85;85.47
46007;BME280;31738;50.188;8.524;2024-03-02T03:19:34;97512.97;;;5.81;85.71
46007;BME280;31738;50.188;8.524;2024-03-02T03:22:09;97517.22;;;5.82;85.74
46007;BME280;31738;50.188;8.524;2024-03-02T03:24:53;97518.81;;;5.83;85.65
46007;BME280;31738;50.188;8.524;2024-03-02T03:27:27;97517.75;;;5.79;85.80
46007;BME280;31738;50.188;8.524;2024-03-02T03:30:03;97517.75;;;5.79;85.81
46007;BME280;31738;50.188;8.524;2024-03-02T03:32:44;97513.50;;;5.78;86.07
46007;BME280;31738;50.188;8.524;2024-03-02T03:35:34;97520.41;;;5.74;85.80
46007;BME280;31738;50.188;8.524;2024-03-02T03:38:03;97512.44;;;5.74;85.96
46007;BME280;31738;50.188;8.524;2024-03-02T03:40:49;97509.78;;;5.74;85.94
46007;BME280;31738;50.188;8.524;2024-03-02T03:43:27;97509.00;;;5.73;86.31
46007;BME280;31738;50.188;8.524;2024-03-02T03:46:23;97526.81;;;5.73;86.10
46007;BME280;31738;50.188;8.524;2024-03-02T03:49:07;97519.38;;;5.70;85.93
46007;BME280;31738;50.188;8.524;2024-03-02T03:51:46;97514.88;;;5.70;86.28
46007;BME280;31738;50.188;8.524;2024-03-02T03:54:26;97526.88;;;5.58;86.05
46007;BME280;31738;50.188;8.524;2024-03-02T03:56:58;97535.41;;;5.55;86.54
46007;BME280;31738;50.188;8.524;2024-03-02T03:59:39;97528.47;;;5.59;85.98
46007;BME280;31738;50.188;8.524;2024-03-02T04:02:13;97521.50;;;5.63;85.95
46007;BME280;31738;50.188;8.524;2024-03-02T04:04:41;97516.72;;;5.65;86.36
46007;BME280;31738;50.188;8.524;2024-03-02T04:07:36;97524.69;;;5.70;85.68
46007;BME280;31738;50.188;8.524;2024-03-02T04:10:38;97516.19;;;5.68;86.01
46007;BME280;31738;50.188;8.524;2024-03-02T04:13:19;97514.06;;;5.70;86.26
46007;BME280;31738;50.188;8.524;2024-03-02T04:19:24;97520.19;;;5.70;86.49
46007;BME280;31738;50.188;8.524;2024-03-02T04:22:16;97520.41;;;5.74;86.25
46007;BME280;31738;50.188;8.524;2024-03-02T04:24:53;97519.31;;;5.80;86.30
46007;BME280;31738;50.188;8.524;2024-03-02T04:28:05;97519.88;;;5.82;85.91
46007;BME280;31738;50.188;8.524;2024-03-02T04:31:03;97522.25;;;5.78;86.30
46007;BME280;31738;50.188;8.524;2024-03-02T04:33:32;97518.28;;;5.81;86.25
46007;BME280;31738;50.188;8.524;2024-03-02T04:36:23;97520.44;;;5.84;86.36
46007;BME280;31738;50.188;8.524;2024-03-02T04:38:55;97514.28;;;5.83;86.66
46007;BME280;31738;50.188;8.524;2024-03-02T04:41:32;97508.44;;;5.86;86.72
46007;BME280;31738;50.188;8.524;2024-03-02T04:44:25;97521.47;;;5.88;86.47
46007;BME280;31738;50.188;8.524;2024-03-02T04:47:25;97504.94;;;5.91;86.63
46007;BME280;31738;50.188;8.524;2024-03-02T04:50:15;97511.84;;;5.92;87.19
46007;BME280;31738;50.188;8.524;2024-03-02T04:52:59;97511.81;;;6.02;87.46
46007;BME280;31738;50.188;8.524;2024-03-02T04:55:30;97513.41;;;6.03;87.01
46007;BME280;31738;50.188;8.524;2024-03-02T04:58:30;97523.00;;;5.99;86.59
46007;BME280;31738;50.188;8.524;2024-03-02T05:01:03;97515.31;;;5.97;86.83
46007;BME280;31738;50.188;8.524;2024-03-02T05:04:32;97510.81;;;5.88;86.76
46007;BME280;31738;50.188;8.524;2024-03-02T05:07:29;97512.94;;;5.86;86.85
46007;BME280;31738;50.188;8.524;2024-03-02T05:10:22;97534.78;;;5.83;87.02
46007;BME280;31738;50.188;8.524;2024-03-02T05:13:05;97525.75;;;5.84;86.99
46007;BME280;31738;50.188;8.524;2024-03-02T05:18:51;97523.59;;;5.86;87.50
46007;BME280;31738;50.188;8.524;2024-03-02T05:24:45;97528.69;;;5.82;87.24
46007;BME280;31738;50.188;8.524;2024-03-02T05:27:25;97536.91;;;5.81;87.22
46007;BME280;31738;50.188;8.524;2024-03-02T05:30:00;97534.00;;;5.82;87.11
46007;BME280;31738;50.188;8.524;2024-03-02T05:33:00;97533.19;;;5.82;87.12
46007;BME280;31738;50.188;8.524;2024-03-02T05:35:39;97533.19;;;5.82;87.50
46007;BME280;31738;50.188;8.524;2024-03-02T05:38:36;97539.56;;;5.81;87.53
46007;BME280;31738;50.188;8.524;2024-03-02T05:41:36;97537.94;;;5.80;87.15
46007;BME280;31738;50.188;8.524;2024-03-02T05:44:43;97548.09;;;5.78;87.57
46007;BME280;31738;50.188;8.524;2024-03-02T05:47:41;97555.53;;;5.76;87.54
46007;BME280;31738;50.188;8.524;2024-03-02T05:50:45;97547.00;;;5.79;87.52
46007;BME280;31738;50.188;8.524;2024-03-02T05:53:37;97560.84;;;5.81;87.33
46007;BME280;31738;50.188;8.524;2024-03-02T05:56:23;97552.06;;;5.85;87.29
46007;BME280;31738;50.188;8.524;2024-03-02T05:59:06;97562.44;;;5.87;87.46
46007;BME280;31738;50.188;8.524;2024-03-02T06:01:44;97561.91;;;5.90;87.29
46007;BME280;31738;50.188;8.524;2024-03-02T06:07:42;97559.22;;;5.95;87.42
46007;BME280;31738;50.188;8.524;2024-03-02T06:10:24;97556.03;;;5.98;87.64
46007;BME280;31738;50.188;8.524;2024-03-02T06:13:09;97557.59;;;6.04;87.44
46007;BME280;31738;50.188;8.524;2024-03-02T06:16:07;97557.59;;;6.04;87.26
46007;BME280;31738;50.188;8.524;2024-03-02T06:18:50;97558.63;;;6.08;87.61
46007;BME280;31738;50.188;8.524;2024-03-02T06:21:52;97562.84;;;6.14;87.19
46007;BME280;31738;50.188;8.524;2024-03-02T06:24:34;97567.38;;;6.13;87.34
46007;BME280;31738;50.188;8.524;2024-03-02T06:27:40;97563.13;;;6.17;87.12
46007;BME280;31738;50.188;8.524;2024-03-02T06:30:15;97556.44;;;6.20;87.49
46007;BME280;31738;50.188;8.524;2024-03-02T06:32:46;97568.16;;;6.24;87.48
46007;BME280;31738;50.188;8.524;2024-03-02T06:41:48;97568.09;;;6.29;87.38
46007;BME280;31738;50.188;8.524;2024-03-02T06:44:37;97570.22;;;6.32;87.64
46007;BME280;31738;50.188;8.524;2024-03-02T06:47:16;97569.66;;;6.35;87.36
46007;BME280;31738;50.188;8.524;2024-03-02T06:50:08;97565.94;;;6.36;87.52
46007;BME280;31738;50.188;8.524;2024-03-02T06:53:03;97576.88;;;6.34;87.16
46007;BME280;31738;50.188;8.524;2024-03-02T06:56:10;97572.06;;;6.36;87.78
46007;BME280;31738;50.188;8.524;2024-03-02T06:59:04;97571.03;;;6.32;87.96
46007;BME280;31738;50.188;8.524;2024-03-02T07:01:44;97571.28;;;6.36;87.68
46007;BME280;31738;50.188;8.524;2024-03-02T07:04:23;97582.47;;;6.33;87.69
46007;BME280;31738;50.188;8.524;2024-03-02T07:07:00;97577.69;;;6.30;87.81
46007;BME280;31738;50.188;8.524;2024-03-02T07:09:55;97579.03;;;6.27;87.77
46007;BME280;31738;50.188;8.524;2024-03-02T07:12:32;97581.97;;;6.26;87.97
46007;BME280;31738;50.188;8.524;2024-03-02T07:15:30;97588.91;;;6.22;88.15
46007;BME280;31738;50.188;8.524;2024-03-02T07:18:50;97586.25;;;6.22;88.24
46007;BME280;31738;50.188;8.524;2024-03-02T07:21:47;97589.44;;;6.24;87.92
46007;BME280;31738;50.188;8.524;2024-03-02T07:24:30;97591.56;;;6.27;87.93
46007;BME280;31738;50.188;8.524;2024-03-02T07:27:28;97602.16;;;6.32;88.26
46007;BME280;31738;50.188;8.524;2024-03-02T07:30:07;97593.91;;;6.33;88.36
46007;BME280;31738;50.188;8.524;2024-03-02T07:32:37;97606.41;;;6.38;87.92
46007;BME280;31738;50.188;8.524;2024-03-02T07:35:25;97600.50;;;6.46;88.03
46007;BME280;31738;50.188;8.524;2024-03-02T07:38:27;97589.81;;;6.51;88.55
46007;BME280;31738;50.188;8.524;2024-03-02T07:41:09;97597.25;;;6.59;88.40
46007;BME280;31738;50.188;8.524;2024-03-02T07:43:53;97597.16;;;6.69;88.08
46007;BME280;31738;50.188;8.524;2024-03-02T07:46:54;97593.06;;;6.86;88.13
46007;BME280;31738;50.188;8.524;2024-03-02T07:57:02;97603.66;;;7.30;87.58
46007;BME280;31738;50.188;8.524;2024-03-02T07:59:48;97609.13;;;7.44;87.70
46007;BME280;31738;50.188;8.524;2024-03-02T08:02:51;97609.81;;;7.54;87.59
46007;BME280;31738;50.188;8.524;2024-03-02T08:05:34;97612.13;;;7.66;87.56
46007;BME280;31738;50.188;8.524;2024-03-02T08:08:07;97620.31;;;7.74;87.87
46007;BME280;31738;50.188;8.524;2024-03-02T08:10:53;97611.13;;;7.85;87.73
46007;BME280;31738;50.188;8.524;2024-03-02T08:13:39;97615.84;;;7.93;87.84
46007;BME280;31738;50.188;8.524;2024-03-02T08:17:31;97611.19;;;8.04;87.34
46007;BME280;31738;50.188;8.524;2024-03-02T08:20:00;97614.53;;;8.14;87.97
46007;BME280;31738;50.188;8.524;2024-03-02T08:22:42;97613.38;;;8.25;87.94
46007;BME280;31738;50.188;8.524;2024-03-02T08:25:14;97611.13;;;8.32;87.50
46007;BME280;31738;50.188;8.524;2024-03-02T08:27:56;97622.81;;;8.41;86.91
46007;BME280;31738;50.188;8.524;2024-03-02T08:30:46;97622.38;;;8.29;86.88
46007;BME280;31738;50.188;8.524;2024-03-02T08:33:47;97622.06;;;8.36;87.19
46007;BME280;31738;50.188;8.524;2024-03-02T08:36:21;97626.47;;;8.45;87.51
46007;BME280;31738;50.188;8.524;2024-03-02T08:39:03;97627.19;;;8.51;87.58
46007;BME280;31738;50.188;8.524;2024-03-02T08:42:25;97635.69;;;8.58;86.92
46007;BME280;31738;50.188;8.524;2024-03-02T08:45:22;97639.06;;;8.63;86.45
46007;BME280;31738;50.188;8.524;2024-03-02T08:48:30;97642.91;;;8.76;86.16
46007;BME280;31738;50.188;8.524;2024-03-02T08:51:19;97647.16;;;8.77;86.73
46007;BME280;31738;50.188;8.524;2024-03-02T08:54:22;97643.63;;;8.82;86.08
46007;BME280;31738;50.188;8.524;2024-03-02T08:56:48;97643.56;;;8.87;85.85
46007;BME280;31738;50.188;8.524;2024-03-02T08:59:14;97641.81;;;8.96;85.90
46007;BME280;31738;50.188;8.524;2024-03-02T09:04:51;97646.31;;;9.19;85.50
46007;BME280;31738;50.188;8.524;2024-03-02T09:07:28;97649.31;;;9.31;85.22
46007;BME280;31738;50.188;8.524;2024-03-02T09:10:05;97651.56;;;9.42;84.94
46007;BME280;31738;50.188;8.524;2024-03-02T09:12:35;97656.84;;;9.47;84.39
46007;BME280;31738;50.188;8.524;2024-03-02T09:15:18;97653.09;;;9.62;84.38
46007;BME280;31738;50.188;8.524;2024-03-02T09:17:49;97652.22;;;9.66;84.00
46007;BME280;31738;50.188;8.524;2024-03-02T09:20:21;97657.19;;;9.73;83.90
46007;BME280;31738;50.188;8.524;2024-03-02T09:23:00;97660.28;;;9.80;83.77
46007;BME280;31738;50.188;8.524;2024-03-02T09:25:54;97662.19;;;9.79;83.49
46007;BME280;31738;50.188;8.524;2024-03-02T09:30:47;97661.88;;;9.81;83.13
46007;BME280;31738;50.188;8.524;2024-03-02T09:33:13;97662.38;;;9.83;82.83
46007;BME280;31738;50.188;8.524;2024-03-02T09:35:38;97664.97;;;9.88;82.29
46007;BME280;31738;50.188;8.524;2024-03-02T09:38:04;97665.97;;;9.92;82.25
46007;BME280;31738;50.188;8.524;2024-03-02T09:40:29;97686.19;;;9.98;82.31
46007;BME280;31738;50.188;8.524;2024-03-02T09:42:55;97676.50;;;10.02;81.75
46007;BME280;31738;50.188;8.524;2024-03-02T09:45:24;97675.56;;;10.11;81.47
46007;BME280;31738;50.188;8.524;2024-03-02T09:47:50;97685.09;;;10.17;80.89
46007;BME280;31738;50.188;8.524;2024-03-02T09:53:04;97692.84;;;10.32;80.89
46007;BME280;31738;50.188;8.524;2024-03-02T09:55:33;97689.28;;;10.37;79.93
46007;BME280;31738;50.188;8.524;2024-03-02T09:58:20;97698.59;;;10.39;79.84
46007;BME280;31738;50.188;8.524;2024-03-02T10:01:20;97691.44;;;10.49;79.83
46007;BME280;31738;50.188;8.524;2024-03-02T10:04:04;97698.59;;;10.53;79.27
46007;BME280;31738;50.188;8.524;2024-03-02T10:06:50;97700.00;;;10.64;79.07
46007;BME280;31738;50.188;8.524;2024-03-02T10:09:46;97700.28;;;10.76;78.15
46007;BME280;31738;50.188;8.524;2024-03-02T10:12:20;97703.66;;;10.82;77.62
46007;BME280;31738;50.188;8.524;2024-03-02T10:15:06;97712.09;;;10.89;77.40
46007;BME280;31738;50.188;8.524;2024-03-02T10:17:43;97716.84;;;10.92;77.09
46007;BME280;31738;50.188;8.524;2024-03-02T10:20:46;97710.69;;;11.05;76.73
46007;BME280;31738;50.188;8.524;2024-03-02T10:23:23;97709.84;;;11.18;76.56
46007;BME280;31738;50.188;8.524;2024-03-02T10:26:16;97742.75;;;11.23;69.77
46007;BME280;31738;50.188;8.524;2024-03-02T10:29:00;97728.53;;;11.23;75.24
46007;BME280;31738;50.188;8.524;2024-03-02T10:31:37;97723.38;;;11.26;74.91
46007;BME280;31738;50.188;8.524;2024-03-02T10:34:18;97728.81;;;11.35;74.83
46007;BME280;31738;50.188;8.524;2024-03-02T10:36:47;97724.25;;;11.57;73.25
46007;BME280;31738;50.188;8.524;2024-03-02T10:39:17;97725.53;;;11.73;73.08
46007;BME280;31738;50.188;8.524;2024-03-02T10:42:00;97731.63;;;11.87;72.72
46007;BME280;31738;50.188;8.524;2024-03-02T10:44:58;97731.88;;;11.99;72.72
46007;BME280;31738;50.188;8.524;2024-03-02T10:47:46;97733.22;;;12.11;71.38
46007;BME280;31738;50.188;8.524;2024-03-02T10:50:55;97735.50;;;12.03;72.03
46007;BME280;31738;50.188;8.524;2024-03-02T10:53:30;97740.59;;;12.05;72.26
46007;BME280;31738;50.188;8.524;2024-03-02T10:55:59;97734.16;;;12.15;71.48
46007;BME280;31738;50.188;8.524;2024-03-02T10:58:41;97738.50;;;12.24;71.34
46007;BME280;31738;50.188;8.524;2024-03-02T11:01:15;97730.84;;;12.40;71.13
46007;BME280;31738;50.188;8.524;2024-03-02T11:03:46;97733.41;;;12.45;70.48
46007;BME280;31738;50.188;8.524;2024-03-02T11:06:34;97740.22;;;12.51;70.13
46007;BME280;31738;50.188;8.524;2024-03-02T11:09:21;97738.50;;;12.55;69.86
46007;BME280;31738;50.188;8.524;2024-03-02T11:12:25;97747.25;;;12.69;69.58
46007;BME280;31738;50.188;8.524;2024-03-02T11:15:12;97753.06;;;12.54;70.12
46007;BME280;31738;50.188;8.524;2024-03-02T11:17:51;97751.81;;;12.60;69.50
46007;BME280;31738;50.188;8.524;2024-03-02T11:20:26;97751.31;;;12.58;68.84
46007;BME280;31738;50.188;8.524;2024-03-02T11:23:14;97750.81;;;12.56;69.49
46007;BME280;31738;50.188;8.524;2024-03-02T11:25:50;97756.56;;;12.63;69.50
46007;BME280;31738;50.188;8.524;2024-03-02T11:28:39;97762.41;;;12.65;68.98
46007;BME280;31738;50.188;8.524;2024-03-02T11:31:22;97748.97;;;12.65;68.87
46007;BME280;31738;50.188;8.524;2024-03-02T11:33:55;97754.88;;;12.75;68.52
46007;BME280;31738;50.188;8.524;2024-03-02T11:36:46;97747.59;;;12.76;67.82
46007;BME280;31738;50.188;8.524;2024-03-02T11:39:25;97750.16;;;12.81;67.44
46007;BME280;31738;50.188;8.524;2024-03-02T11:41:54;97747.75;;;12.79;66.36
46007;BME280;31738;50.188;8.524;2024-03-02T11:44:49;97753.47;;;12.78;66.73
46007;BME280;31738;50.188;8.524;2024-03-02T11:51:19;97755.97;;;12.74;66.02
46007;BME280;31738;50.188;8.524;2024-03-02T11:54:30;97755.84;;;12.79;65.34
46007;BME280;31738;50.188;8.524;2024-03-02T11:57:07;97751.25;;;12.80;65.61
46007;BME280;31738;50.188;8.524;2024-03-02T12:00:17;97750.00;;;12.86;65.22
46007;BME280;31738;50.188;8.524;2024-03-02T12:03:05;97743.69;;;12.90;65.63
46007;BME280;31738;50.188;8.524;2024-03-02T12:05:49;97750.72;;;13.00;65.23
46007;BME280;31738;50.188;8.524;2024-03-02T12:08:26;97747.72;;;13.01;65.21
46007;BME280;31738;50.188;8.524;2024-03-02T12:11:15;97743.69;;;12.99;64.32
46007;BME280;31738;50.188;8.524;2024-03-02T12:13:53;97753.53;;;12.95;64.42
46007;BME280;31738;50.188;8.524;2024-03-02T12:16:47;97754.78;;;12.97;63.90
46007;BME280;31738;50.188;8.524;2024-03-02T12:19:23;97759.13;;;13.07;61.91
46007;BME280;31738;50.188;8.524;2024-03-02T12:22:01;97743.78;;;13.16;63.69
46007;BME280;31738;50.188;8.524;2024-03-02T12:24:35;97745.69;;;13.24;63.79
46007;BME280;31738;50.188;8.524;2024-03-02T12:27:29;97739.53;;;13.40;63.32
46007;BME280;31738;50.188;8.524;2024-03-02T12:30:00;97743.19;;;13.36;63.16
46007;BME280;31738;50.188;8.524;2024-03-02T12:32:34;97744.75;;;13.37;63.14
46007;BME280;31738;50.188;8.524;2024-03-02T12:35:12;97745.25;;;13.39;62.79
46007;BME280;31738;50.188;8.524;2024-03-02T12:38:02;97744.63;;;13.42;62.99
46007;BME280;31738;50.188;8.524;2024-03-02T12:40:42;97740.03;;;13.51;61.01
46007;BME280;31738;50.188;8.524;2024-03-02T12:43:22;97726.72;;;13.54;62.21
46007;BME280;31738;50.188;8.524;2024-03-02T12:45:53;97724.00;;;13.63;61.84
46007;BME280;31738;50.188;8.524;2024-03-02T12:48:29;97726.25;;;13.69;62.20
46007;BME280;31738;50.188;8.524;2024-03-02T12:51:04;97725.13;;;13.79;61.69
46007;BME280;31738;50.188;8.524;2024-03-02T12:53:29;97721.16;;;13.76;61.16
46007;BME280;31738;50.188;8.524;2024-03-02T12:56:01;97726.56;;;13.59;61.78
46007;BME280;31738;50.188;8.524;2024-03-02T12:58:30;97725.63;;;13.64;61.57
46007;BME280;31738;50.188;8.524;2024-03-02T13:01:08;97723.22;;;13.71;61.67
46007;BME280;31738;50.188;8.524;2024-03-02T13:03:41;97721.66;;;13.70;61.41
46007;BME280;31738;50.188;8.524;2024-03-02T13:06:14;97719.28;;;13.68;61.23
46007;BME280;31738;50.188;8.524;2024-03-02T13:09:13;97720.03;;;13.69;61.16
46007;BME280;31738;50.188;8.524;2024-03-02T13:12:02;97725.91;;;13.71;60.80
46007;BME280;31738;50.188;8.524;2024-03-02T13:14:54;97728.47;;;13.76;61.17
46007;BME280;31738;50.188;8.524;2024-03-02T13:17:24;97721.47;;;13.84;61.24
46007;BME280;31738;50.188;8.524;2024-03-02T13:19:59;97721.66;;;13.87;61.12
46007;BME280;31738;50.188;8.524;2024-03-02T13:22:25;97715.59;;;13.82;61.60
46007;BME280;31738;50.188;8.524;2024-03-02T13:24:54;97718.31;;;13.90;60.97
46007;BME280;31738;50.188;8.524;2024-03-02T13:27:23;97715.25;;;14.00;60.98
46007;BME280;31738;50.188;8.524;2024-03-02T13:29:49;97707.66;;;14.02;60.21
46007;BME280;31738;50.188;8.524;2024-03-02T13:32:18;97714.47;;;14.08;60.34
46007;BME280;31738;50.188;8.524;2024-03-02T13:34:50;97708.25;;;14.16;60.33
46007;BME280;31738;50.188;8.524;2024-03-02T13:37:19;97710.81;;;14.04;60.72
46007;BME280;31738;50.188;8.524;2024-03-02T13:39:48;97703.84;;;14.03;60.66
46007;BME280;31738;50.188;8.524;2024-03-02T13:42:14;97712.41;;;14.05;60.60
46007;BME280;31738;50.188;8.524;2024-03-02T13:44:50;97700.19;;;14.08;60.76
46007;BME280;31738;50.188;8.524;2024-03-02T13:47:18;97696.53;;;14.12;60.91
46007;BME280;31738;50.188;8.524;2024-03-02T13:49:54;97697.47;;;14.16;60.78
46007;BME280;31738;50.188;8.524;2024-03-02T13:52:19;97697.47;;;14.16;60.31
46007;BME280;31738;50.188;8.524;2024-03-02T13:54:49;97692.38;;;14.23;60.76
46007;BME280;31738;50.188;8.524;2024-03-02T13:57:23;97686.50;;;14.30;59.99
46007;BME280;31738;50.188;8.524;2024-03-02T13:59:52;97689.22;;;14.30;59.77
46007;BME280;31738;50.188;8.524;2024-03-02T14:02:24;97681.75;;;14.27;60.22
46007;BME280;31738;50.188;8.524;2024-03-02T14:04:58;97683.19;;;14.24;59.99
46007;BME280;31738;50.188;8.524;2024-03-02T14:07:26;97680.00;;;14.22;59.96
46007;BME280;31738;50.188;8.524;2024-03-02T14:09:57;97673.81;;;14.22;60.01
46007;BME280;31738;50.188;8.524;2024-03-02T14:12:26;97668.25;;;14.18;59.88
46007;BME280;31738;50.188;8.524;2024-03-02T14:14:52;97671.44;;;14.20;60.11
46007;BME280;31738;50.188;8.524;2024-03-02T14:17:20;97672.41;;;14.24;60.01
46007;BME280;31738;50.188;8.524;2024-03-02T14:19:48;97672.41;;;14.24;59.71
46007;BME280;31738;50.188;8.524;2024-03-02T14:22:27;97685.88;;;14.24;59.55
46007;BME280;31738;50.188;8.524;2024-03-02T14:25:02;97668.75;;;14.20;58.98
46007;BME280;31738;50.188;8.524;2024-03-02T14:27:28;97678.41;;;14.21;58.89
46007;BME280;31738;50.188;8.524;2024-03-02T14:30:17;97673.00;;;14.21;58.96
46007;BME280;31738;50.188;8.524;2024-03-02T14:32:48;97671.44;;;14.20;59.13
46007;BME280;31738;50.188;8.524;2024-03-02T14:35:19;97674.47;;;14.19;58.31
46007;BME280;31738;50.188;8.524;2024-03-02T14:37:56;97663.84;;;14.14;59.08
46007;BME280;31738;50.188;8.524;2024-03-02T14:40:28;97663.56;;;13.98;59.80
46007;BME280;31738;50.188;8.524;2024-03-02T14:42:58;97664.50;;;14.02;59.62
46007;BME280;31738;50.188;8.524;2024-03-02T14:45:23;97656.88;;;14.04;59.67
46007;BME280;31738;50.188;8.524;2024-03-02T14:47:49;97653.09;;;14.05;58.49
46007;BME280;31738;50.188;8.524;2024-03-02T14:50:18;97661.00;;;14.10;58.85
46007;BME280;31738;50.188;8.524;2024-03-02T14:52:46;97659.56;;;14.13;58.91
46007;BME280;31738;50.188;8.524;2024-03-02T14:55:12;97649.56;;;14.13;58.54
46007;BME280;31738;50.188;8.524;2024-03-02T14:57:40;97647.34;;;14.15;58.57
46007;BME280;31738;50.188;8.524;2024-03-02T15:00:06;97649.69;;;14.17;58.55
46007;BME280;31738;50.188;8.524;2024-03-02T15:02:33;97647.81;;;14.17;58.61
46007;BME280;31738;50.188;8.524;2024-03-02T15:04:59;97648.13;;;14.16;58.95
46007;BME280;31738;50.188;8.524;2024-03-02T15:07:25;97639.88;;;14.12;58.90
46007;BME280;31738;50.188;8.524;2024-03-02T15:09:51;97640.53;;;14.09;58.82